Time;durP1;ratioP1;P1;durP2;ratioP2;P2;SDS_P1;SDS_P2;PMS_P1;PMS_P2;Temp;Humidity;BMP_temperature;BMP_pressure;BME280_temperature;BME280_humidity;BME280_pressure;Samples;Min_cycle;Max_cycle;Signal;HPM_P1;HPM_P2
2021/04/21 00:00:49;;;;;;;146.55;62.00;;;;;;;;;;5091452;28;20020;-74
2021/04/21 00:03:15;;;;;;;145.88;62.33;;;;;;;;;;5091883;28;20012;-74
2021/04/21 00:05:41;;;;;;;146.98;63.10;;;;;;;;;;5089105;28;20509;-72
2021/04/21 00:08:08;;;;;;;153.90;61.88;;;;;;;;;;5081681;28;20482;-74
2021/04/21 00:10:34;;;;;;;148.27;60.50;;;;;;;;;;5084724;28;20037;-73
2021/04/21 00:13:01;;;;;;;145.60;61.40;;;;;;;;;;5089295;28;20254;-72
2021/04/21 00:15:27;;;;;;;149.85;59.72;;;;;;;;;;5088819;28;20028;-73
2021/04/21 00:17:55;;;;;;;145.52;62.40;;;;;;;;;;5084556;28;20032;-72
2021/04/21 00:20:23;;;;;;;139.40;59.65;;;;;;;;;;5090291;28;20051;-73
2021/04/21 00:22:57;;;;;;;144.98;61.95;;;;;;;;;;5073947;28;20086;-73
2021/04/21 00:25:24;;;;;;;147.80;60.30;;;;;;;;;;5090326;28;20033;-72
2021/04/21 00:27:53;;;;;;;162.07;64.18;;;;;;;;;;5090730;28;20073;-73
2021/04/21 00:30:21;;;;;;;149.60;61.28;;;;;;;;;;5081606;28;20062;-72
2021/04/21 00:32:51;;;;;;;153.50;63.85;;;;;;;;;;5084422;28;20031;-73
2021/04/21 00:35:20;;;;;;;158.80;65.20;;;;;;;;;;5090019;28;20016;-73
2021/04/21 00:37:48;;;;;;;159.43;65.97;;;;;;;;;;5088160;28;20039;-73
2021/04/21 00:40:17;;;;;;;161.52;68.03;;;;;;;;;;5083527;28;20189;-73
2021/04/21 00:42:52;;;;;;;161.00;67.53;;;;;;;;;;5080770;28;20070;-72
2021/04/21 00:45:19;;;;;;;167.95;67.50;;;;;;;;;;5091299;28;20044;-73
2021/04/21 00:47:53;;;;;;;156.95;66.32;;;;;;;;;;5088454;28;20016;-73
2021/04/21 00:50:22;;;;;;;158.02;65.45;;;;;;;;;;5087491;28;20054;-73
2021/04/21 00:52:48;;;;;;;149.40;64.70;;;;;;;;;;5088664;28;20055;-73
2021/04/21 00:55:19;;;;;;;156.90;62.83;;;;;;;;;;5092344;28;20028;-73
2021/04/21 00:57:48;;;;;;;151.30;62.47;;;;;;;;;;5086696;28;20032;-73
2021/04/21 01:00:20;;;;;;;162.70;66.75;;;;;;;;;;5084765;28;20036;-73
2021/04/21 01:02:52;;;;;;;156.40;66.07;;;;;;;;;;5088233;28;20052;-72
2021/04/21 01:05:21;;;;;;;172.27;69.55;;;;;;;;;;5089337;28;20070;-73
2021/04/21 01:07:47;;;;;;;154.90;67.13;;;;;;;;;;5085049;28;20035;-73
2021/04/21 01:10:15;;;;;;;160.32;64.97;;;;;;;;;;5089045;28;20483;-73
2021/04/21 01:12:41;;;;;;;171.93;68.97;;;;;;;;;;5091899;28;20039;-72
2021/04/21 01:15:08;;;;;;;162.80;67.55;;;;;;;;;;5090182;28;20028;-72
2021/04/21 01:17:36;;;;;;;163.07;67.00;;;;;;;;;;5090324;28;20107;-73
2021/04/21 01:20:06;;;;;;;164.80;68.93;;;;;;;;;;5095372;28;20574;-73
2021/04/21 01:22:41;;;;;;;165.60;68.68;;;;;;;;;;5091589;28;20095;-74
2021/04/21 01:25:12;;;;;;;169.35;65.90;;;;;;;;;;5083409;28;20553;-72
2021/04/21 01:27:58;;;;;;;159.93;67.07;;;;;;;;;;5083317;28;20050;-72
2021/04/21 01:30:25;;;;;;;153.70;62.75;;;;;;;;;;5080748;28;20501;-73
2021/04/21 01:32:53;;;;;;;159.13;66.45;;;;;;;;;;5089817;28;20043;-73
2021/04/21 01:35:21;;;;;;;153.52;63.80;;;;;;;;;;5079710;28;20393;-73
2021/04/21 01:37:48;;;;;;;167.40;67.80;;;;;;;;;;5091300;28;20127;-73
2021/04/21 01:40:20;;;;;;;154.73;63.40;;;;;;;;;;5086650;28;20030;-73
2021/04/21 01:42:48;;;;;;;154.45;61.72;;;;;;;;;;5083124;28;20048;-72
2021/04/21 01:45:16;;;;;;;157.73;64.45;;;;;;;;;;5089066;28;20028;-72
2021/04/21 01:47:43;;;;;;;161.10;65.22;;;;;;;;;;5085445;28;20023;-72
2021/04/21 01:50:12;;;;;;;159.32;65.15;;;;;;;;;;5088226;28;20041;-73
2021/04/21 01:52:48;;;;;;;166.10;67.72;;;;;;;;;;5089042;28;20031;-72
2021/04/21 01:55:20;;;;;;;156.05;65.25;;;;;;;;;;5090076;28;20040;-72
2021/04/21 01:57:52;;;;;;;154.77;64.75;;;;;;;;;;5087206;28;20085;-72
2021/04/21 02:00:33;;;;;;;156.82;65.95;;;;;;;;;;5089398;28;20032;-72
2021/04/21 02:03:12;;;;;;;163.30;67.47;;;;;;;;;;5081751;28;20037;-72
2021/04/21 02:05:56;;;;;;;159.25;66.03;;;;;;;;;;5083655;28;20025;-74
2021/04/21 02:08:29;;;;;;;151.75;65.75;;;;;;;;;;5083488;28;20093;-72
2021/04/21 02:11:28;;;;;;;152.70;63.85;;;;;;;;;;5082206;28;20032;-72
2021/04/21 02:14:06;;;;;;;152.93;66.32;;;;;;;;;;5038398;28;20055;-72
2021/04/21 02:16:35;;;;;;;153.13;63.72;;;;;;;;;;5081367;28;20040;-72
2021/04/21 02:19:10;;;;;;;152.45;66.53;;;;;;;;;;5079849;28;20540;-72
2021/04/21 02:21:36;;;;;;;145.80;63.33;;;;;;;;;;5084934;28;20036;-73
2021/04/21 02:24:15;;;;;;;144.30;62.28;;;;;;;;;;5087463;28;20028;-73
2021/04/21 02:26:46;;;;;;;147.77;63.78;;;;;;;;;;5089383;28;20036;-72
2021/04/21 02:29:32;;;;;;;155.55;65.55;;;;;;;;;;5087686;28;20024;-73
2021/04/21 02:32:10;;;;;;;140.18;62.83;;;;;;;;;;5072333;28;20124;-72
2021/04/21 02:34:47;;;;;;;151.52;65.25;;;;;;;;;;5077948;28;20287;-72
2021/04/21 02:37:21;;;;;;;147.23;64.20;;;;;;;;;;5083133;28;20070;-72
2021/04/21 02:39:56;;;;;;;147.70;64.43;;;;;;;;;;5086066;28;20074;-72
2021/04/21 02:42:43;;;;;;;155.13;67.65;;;;;;;;;;5083052;28;20189;-72
2021/04/21 02:45:19;;;;;;;155.77;64.68;;;;;;;;;;5078806;28;20047;-72
2021/04/21 02:47:52;;;;;;;171.18;71.47;;;;;;;;;;5090412;28;20028;-72
2021/04/21 02:50:33;;;;;;;157.95;69.63;;;;;;;;;;5092308;28;20024;-73
2021/04/21 02:53:17;;;;;;;166.17;74.07;;;;;;;;;;5091204;28;20032;-72
2021/04/21 02:56:03;;;;;;;183.77;74.53;;;;;;;;;;5087329;28;20865;-72
2021/04/21 02:58:35;;;;;;;179.60;75.22;;;;;;;;;;5091244;28;20059;-72
2021/04/21 03:01:07;;;;;;;174.95;71.53;;;;;;;;;;5079191;28;20035;-72
2021/04/21 03:03:33;;;;;;;;;;;;;;;;;;5089561;28;20024;-73
2021/04/21 03:06:04;;;;;;;175.30;69.82;;;;;;;;;;5092372;28;20009;-72
2021/04/21 03:08:45;;;;;;;178.00;74.77;;;;;;;;;;5094503;28;20512;-72
2021/04/21 03:11:20;;;;;;;181.35;72.95;;;;;;;;;;5089761;28;20269;-72
2021/04/21 03:14:15;;;;;;;169.60;71.43;;;;;;;;;;5084374;28;20067;-72
2021/04/21 03:16:46;;;;;;;178.30;72.88;;;;;;;;;;5074038;28;20044;-72
2021/04/21 03:19:14;;;;;;;172.25;74.07;;;;;;;;;;5092023;28;20048;-72
2021/04/21 03:21:42;;;;;;;196.80;75.10;;;;;;;;;;5085958;28;20020;-72
2021/04/21 03:24:19;;;;;;;187.88;75.90;;;;;;;;;;5084697;28;20111;-72
2021/04/21 03:26:47;;;;;;;173.95;73.25;;;;;;;;;;5090943;28;20028;-72
2021/04/21 03:29:15;;;;;;;174.20;68.68;;;;;;;;;;5092612;28;20040;-72
2021/04/21 03:31:42;;;;;;;181.05;72.05;;;;;;;;;;5082282;28;20440;-72
2021/04/21 03:34:10;;;;;;;177.10;68.20;;;;;;;;;;5086592;28;20074;-72
2021/04/21 03:36:38;;;;;;;176.63;71.95;;;;;;;;;;5087629;28;20047;-72
2021/04/21 03:39:04;;;;;;;177.52;72.60;;;;;;;;;;5097095;28;20024;-71
2021/04/21 03:41:30;;;;;;;158.38;69.35;;;;;;;;;;5089711;28;20421;-72
2021/04/21 03:43:56;;;;;;;152.88;65.82;;;;;;;;;;5093129;28;20086;-73
2021/04/21 03:46:23;;;;;;;168.13;70.50;;;;;;;;;;5087112;28;20024;-72
2021/04/21 03:48:50;;;;;;;156.70;66.97;;;;;;;;;;5085162;28;20031;-72
2021/04/21 03:51:17;;;;;;;166.85;69.47;;;;;;;;;;5086944;28;20028;-72
2021/04/21 03:53:44;;;;;;;164.63;68.25;;;;;;;;;;5093056;28;20554;-72
2021/04/21 03:56:23;;;;;;;154.02;68.75;;;;;;;;;;5089133;28;20020;-72
2021/04/21 03:58:50;;;;;;;156.73;65.78;;;;;;;;;;5089294;28;20031;-72
2021/04/21 04:01:20;;;;;;;156.35;65.00;;;;;;;;;;5083754;28;20036;-72
2021/04/21 04:04:02;;;;;;;158.05;65.10;;;;;;;;;;5088650;28;20390;-72
2021/04/21 04:06:42;;;;;;;156.70;65.97;;;;;;;;;;5083361;28;20035;-71
2021/04/21 04:09:09;;;;;;;156.55;67.93;;;;;;;;;;5091116;28;20037;-72
2021/04/21 04:11:39;;;;;;;164.70;66.78;;;;;;;;;;5082391;28;20031;-72
2021/04/21 04:14:11;;;;;;;157.02;69.05;;;;;;;;;;5084721;28;20020;-73
2021/04/21 04:16:39;;;;;;;153.02;67.65;;;;;;;;;;5091429;28;20021;-72
2021/04/21 04:19:07;;;;;;;160.68;66.38;;;;;;;;;;5079422;28;20052;-72
2021/04/21 04:21:34;;;;;;;143.40;63.50;;;;;;;;;;5091705;28;20046;-72
2021/04/21 04:24:02;;;;;;;159.05;67.55;;;;;;;;;;5089768;28;20533;-72
2021/04/21 04:26:29;;;;;;;145.48;64.00;;;;;;;;;;5078467;28;20017;-72
2021/04/21 04:28:55;;;;;;;160.68;68.57;;;;;;;;;;5087932;28;20493;-72
2021/04/21 04:31:22;;;;;;;168.98;69.40;;;;;;;;;;5090868;28;20134;-72
2021/04/21 04:33:54;;;;;;;155.57;66.47;;;;;;;;;;5088686;28;20313;-72
2021/04/21 04:36:20;;;;;;;156.40;67.95;;;;;;;;;;5090454;28;20036;-71
2021/04/21 04:38:46;;;;;;;143.32;63.80;;;;;;;;;;5090265;28;20024;-73
2021/04/21 04:41:13;;;;;;;154.90;66.05;;;;;;;;;;5091053;28;20031;-72
2021/04/21 04:43:40;;;;;;;148.27;64.63;;;;;;;;;;5092219;28;20028;-72
2021/04/21 04:46:07;;;;;;;154.38;64.70;;;;;;;;;;5080645;28;20082;-72
2021/04/21 04:48:39;;;;;;;144.40;63.15;;;;;;;;;;5088090;28;20020;-72
2021/04/21 04:51:06;;;;;;;155.65;67.53;;;;;;;;;;5090835;28;20016;-72
2021/04/21 04:53:34;;;;;;;152.88;63.80;;;;;;;;;;5082729;28;20108;-72
2021/04/21 04:56:01;;;;;;;160.38;65.20;;;;;;;;;;5086641;28;20055;-71
2021/04/21 04:58:28;;;;;;;158.98;63.15;;;;;;;;;;5091693;28;20549;-71
2021/04/21 05:00:57;;;;;;;147.25;61.05;;;;;;;;;;5086689;28;20024;-72
2021/04/21 05:03:24;;;;;;;145.32;60.55;;;;;;;;;;5085448;28;20023;-71
2021/04/21 05:05:57;;;;;;;153.32;65.75;;;;;;;;;;5087108;28;20086;-71
2021/04/21 05:08:28;;;;;;;150.18;65.53;;;;;;;;;;5088383;28;20016;-72
2021/04/21 05:11:08;;;;;;;165.43;66.75;;;;;;;;;;5086349;28;20077;-72
2021/04/21 05:13:44;;;;;;;163.13;65.95;;;;;;;;;;5087716;28;20051;-72
2021/04/21 05:16:11;;;;;;;163.48;67.15;;;;;;;;;;5087956;28;20036;-72
2021/04/21 05:18:37;;;;;;;173.50;68.28;;;;;;;;;;5086475;28;20559;-72
2021/04/21 05:21:12;;;;;;;168.43;70.38;;;;;;;;;;5088406;28;20580;-72
2021/04/21 05:23:50;;;;;;;145.35;67.72;;;;;;;;;;5087922;28;20407;-72
2021/04/21 05:26:24;;;;;;;158.20;68.25;;;;;;;;;;5078620;28;20561;-72
2021/04/21 05:29:06;;;;;;;168.85;70.63;;;;;;;;;;5081459;28;20494;-71
2021/04/21 05:31:47;;;;;;;165.32;71.10;;;;;;;;;;5082844;28;20031;-71
2021/04/21 05:34:32;;;;;;;183.02;74.32;;;;;;;;;;5082546;28;20541;-72
2021/04/21 05:37:18;;;;;;;173.68;69.93;;;;;;;;;;5078526;28;20020;-71
2021/04/21 05:40:13;;;;;;;175.23;71.32;;;;;;;;;;5064448;28;20040;-72
2021/04/21 05:43:01;;;;;;;166.68;68.22;;;;;;;;;;5053593;28;20048;-71
2021/04/21 05:45:33;;;;;;;161.52;67.18;;;;;;;;;;5040973;28;20052;-71
2021/04/21 05:48:20;;;;;;;172.38;73.78;;;;;;;;;;5093667;28;20023;-71
2021/04/21 05:50:58;;;;;;;174.43;71.78;;;;;;;;;;5089126;28;20453;-71
2021/04/21 05:53:50;;;;;;;183.10;72.68;;;;;;;;;;5079933;28;20531;-71
2021/04/21 05:56:35;;;;;;;175.02;72.72;;;;;;;;;;5091077;28;20020;-72
2021/04/21 05:59:05;;;;;;;186.27;74.68;;;;;;;;;;5086860;28;20020;-72
2021/04/21 06:01:34;;;;;;;176.95;71.13;;;;;;;;;;5071015;28;20040;-72
2021/04/21 06:04:01;;;;;;;178.07;72.93;;;;;;;;;;5086757;28;20024;-72
2021/04/21 06:06:27;;;;;;;175.27;75.15;;;;;;;;;;5088956;28;20052;-71
2021/04/21 06:08:54;;;;;;;170.82;70.80;;;;;;;;;;5087304;28;20031;-72
2021/04/21 06:11:21;;;;;;;168.48;69.43;;;;;;;;;;5090970;28;20532;-72
2021/04/21 06:13:50;;;;;;;170.23;72.07;;;;;;;;;;5090930;28;20453;-72
2021/04/21 06:16:19;;;;;;;167.52;74.97;;;;;;;;;;5090990;28;20047;-72
2021/04/21 06:19:05;;;;;;;170.65;73.80;;;;;;;;;;5090174;28;20050;-72
2021/04/21 06:21:36;;;;;;;166.40;71.90;;;;;;;;;;5094329;28;20076;-72
2021/04/21 06:24:03;;;;;;;167.10;71.95;;;;;;;;;;5081691;28;20020;-72
2021/04/21 06:26:30;;;;;;;163.77;70.32;;;;;;;;;;5086780;28;20058;-72
2021/04/21 06:29:00;;;;;;;185.18;75.35;;;;;;;;;;5087962;28;20047;-72
2021/04/21 06:31:33;;;;;;;185.40;65.72;;;;;;;;;;5086484;28;20536;-71
2021/04/21 06:33:59;;;;;;;168.07;61.22;;;;;;;;;;5082530;28;20026;-71
2021/04/21 06:36:31;;;;;;;163.82;56.97;;;;;;;;;;5088662;28;20036;-71
2021/04/21 06:38:57;;;;;;;156.07;52.38;;;;;;;;;;5085645;28;20024;-72
2021/04/21 06:41:26;;;;;;;197.70;59.90;;;;;;;;;;5087088;28;20027;-71
2021/04/21 06:43:52;;;;;;;192.70;59.88;;;;;;;;;;5077424;28;20027;-72
2021/04/21 06:46:19;;;;;;;187.00;57.35;;;;;;;;;;5084536;28;20032;-73
2021/04/21 06:48:51;;;;;;;185.15;57.45;;;;;;;;;;5083531;28;20045;-73
2021/04/21 06:51:17;;;;;;;195.38;62.20;;;;;;;;;;5082399;28;20281;-73
2021/04/21 06:53:44;;;;;;;177.45;58.60;;;;;;;;;;5085552;28;20054;-73
2021/04/21 06:56:10;;;;;;;171.35;51.72;;;;;;;;;;5084077;28;20032;-74
2021/04/21 06:58:36;;;;;;;134.10;42.97;;;;;;;;;;5089917;28;20024;-73
2021/04/21 07:01:09;;;;;;;136.18;42.95;;;;;;;;;;5077796;28;20032;-73
2021/04/21 07:03:35;;;;;;;116.82;38.60;;;;;;;;;;5088486;28;20162;-72
2021/04/21 07:06:01;;;;;;;112.25;36.33;;;;;;;;;;5084834;28;20520;-73
2021/04/21 07:08:32;;;;;;;109.85;36.75;;;;;;;;;;5086345;28;20028;-73
2021/04/21 07:10:59;;;;;;;116.13;39.28;;;;;;;;;;5086874;28;20052;-74
2021/04/21 07:13:26;;;;;;;117.32;39.22;;;;;;;;;;5086220;28;20028;-74
2021/04/21 07:15:55;;;;;;;123.50;38.17;;;;;;;;;;5088628;28;20616;-74
2021/04/21 07:18:25;;;;;;;123.90;39.97;;;;;;;;;;5077649;28;20493;-74
2021/04/21 07:20:51;;;;;;;115.72;39.22;;;;;;;;;;5091915;28;20028;-75
2021/04/21 07:23:19;;;;;;;130.65;41.40;;;;;;;;;;5075698;28;20017;-75
2021/04/21 07:25:48;;;;;;;127.50;44.13;;;;;;;;;;5085927;28;20035;-74
2021/04/21 07:28:15;;;;;;;123.18;47.53;;;;;;;;;;5087767;28;20103;-74
2021/04/21 07:30:41;;;;;;;102.03;37.67;;;;;;;;;;5087108;28;20078;-74
2021/04/21 07:33:08;;;;;;;107.63;35.55;;;;;;;;;;5088735;28;20081;-74
2021/04/21 07:35:35;;;;;;;102.85;36.15;;;;;;;;;;5072934;28;20021;-76
2021/04/21 07:38:01;;;;;;;106.32;36.17;;;;;;;;;;5087466;28;20071;-75
2021/04/21 07:40:31;;;;;;;98.82;40.17;;;;;;;;;;5088985;28;20379;-75
2021/04/21 07:43:17;;;;;;;96.60;38.03;;;;;;;;;;5090315;28;20031;-74
2021/04/21 07:45:59;;;;;;;87.43;35.90;;;;;;;;;;5077088;28;20039;-73
2021/04/21 07:48:34;;;;;;;88.68;35.65;;;;;;;;;;5089319;28;20436;-75
2021/04/21 07:51:26;;;;;;;101.55;43.33;;;;;;;;;;5084093;28;20024;-76
2021/04/21 07:53:59;;;;;;;105.18;43.72;;;;;;;;;;5087756;28;20410;-75
2021/04/21 07:56:34;;;;;;;105.85;41.97;;;;;;;;;;5084412;28;20034;-75
2021/04/21 07:59:17;;;;;;;109.13;48.80;;;;;;;;;;5089162;28;20283;-75
2021/04/21 08:01:44;;;;;;;116.32;47.10;;;;;;;;;;5089735;28;20073;-75
2021/04/21 08:04:16;;;;;;;100.50;41.03;;;;;;;;;;5087913;28;20032;-75
2021/04/21 08:06:42;;;;;;;;;;;;;;;;;;5086986;28;20041;-75
2021/04/21 08:09:08;;;;;;;92.88;40.13;;;;;;;;;;5088042;28;20473;-74
2021/04/21 08:11:34;;;;;;;96.15;44.90;;;;;;;;;;5088607;28;20028;-74
2021/04/21 08:14:00;;;;;;;93.38;38.88;;;;;;;;;;5085686;28;20047;-76
2021/04/21 08:16:35;;;;;;;88.90;40.00;;;;;;;;;;5089173;28;20473;-75
2021/04/21 08:19:18;;;;;;;86.03;39.53;;;;;;;;;;5082592;28;20125;-74
2021/04/21 08:21:49;;;;;;;102.88;41.53;;;;;;;;;;5085423;28;20046;-76
2021/04/21 08:24:16;;;;;;;107.77;42.53;;;;;;;;;;5090186;28;20034;-78
2021/04/21 08:26:43;;;;;;;92.18;43.47;;;;;;;;;;5091006;28;20602;-78
2021/04/21 08:29:10;;;;;;;100.70;46.33;;;;;;;;;;5086291;28;20012;-76
2021/04/21 08:31:37;;;;;;;110.72;48.65;;;;;;;;;;5087046;28;20035;-75
2021/04/21 08:34:03;;;;;;;119.65;52.15;;;;;;;;;;5085546;28;20026;-79
2021/04/21 08:36:29;;;;;;;116.72;60.55;;;;;;;;;;5083595;28;20058;-76
2021/04/21 08:38:55;;;;;;;110.75;52.45;;;;;;;;;;5078809;28;20484;-76
2021/04/21 08:41:22;;;;;;;89.03;37.35;;;;;;;;;;5079600;28;20040;-72
2021/04/21 08:43:49;;;;;;;85.15;41.15;;;;;;;;;;5084185;28;20043;-73
2021/04/21 08:46:16;;;;;;;96.75;42.00;;;;;;;;;;5084936;28;20028;-76
2021/04/21 08:48:43;;;;;;;113.75;48.13;;;;;;;;;;5083266;28;20099;-76
2021/04/21 08:51:19;;;;;;;99.65;47.20;;;;;;;;;;5084266;28;20020;-74
2021/04/21 08:53:52;;;;;;;98.10;47.45;;;;;;;;;;5086037;28;20032;-78
2021/04/21 08:56:19;;;;;;;93.25;42.65;;;;;;;;;;5081765;28;20016;-76
2021/04/21 08:58:46;;;;;;;92.00;41.97;;;;;;;;;;5083751;28;20020;-82
2021/04/21 09:01:13;;;;;;;85.65;41.67;;;;;;;;;;5081657;28;20032;-77
2021/04/21 09:03:40;;;;;;;75.75;33.00;;;;;;;;;;5088230;28;20062;-77
2021/04/21 09:06:07;;;;;;;83.40;38.90;;;;;;;;;;5101504;28;20008;-79
2021/04/21 09:08:34;;;;;;;83.93;42.28;;;;;;;;;;5109103;28;20065;-79
2021/04/21 09:11:00;;;;;;;83.93;37.42;;;;;;;;;;5101596;28;20016;-80
2021/04/21 09:13:26;;;;;;;83.85;42.47;;;;;;;;;;5105851;28;20072;-79
2021/04/21 09:15:53;;;;;;;93.07;43.70;;;;;;;;;;5107082;28;20095;-79
2021/04/21 09:18:28;;;;;;;85.50;39.58;;;;;;;;;;5106097;28;20035;-78
2021/04/21 09:20:54;;;;;;;90.00;42.45;;;;;;;;;;5087352;28;20084;-78
2021/04/21 09:23:21;;;;;;;97.15;44.15;;;;;;;;;;5086088;28;20125;-78
2021/04/21 09:25:51;;;;;;;84.07;39.03;;;;;;;;;;5085233;28;20032;-77
2021/04/21 09:28:21;;;;;;;84.50;37.25;;;;;;;;;;5083634;28;20509;-77
2021/04/21 09:30:52;;;;;;;89.10;44.80;;;;;;;;;;5083959;28;20080;-78
2021/04/21 09:33:18;;;;;;;91.25;41.72;;;;;;;;;;5086574;28;20123;-77
2021/04/21 09:35:46;;;;;;;83.95;41.05;;;;;;;;;;5084779;28;20032;-78
2021/04/21 09:38:17;;;;;;;79.05;40.38;;;;;;;;;;5083561;28;20067;-78
2021/04/21 09:40:43;;;;;;;73.80;38.58;;;;;;;;;;5082904;28;20028;-79
2021/04/21 09:43:11;;;;;;;73.00;37.60;;;;;;;;;;5087695;28;20039;-77
2021/04/21 09:45:39;;;;;;;75.28;37.80;;;;;;;;;;5073661;28;20027;-77
2021/04/21 09:48:06;;;;;;;67.28;32.05;;;;;;;;;;5086099;28;20028;-76
2021/04/21 09:50:32;;;;;;;71.85;35.80;;;;;;;;;;5086728;28;20051;-79
2021/04/21 09:52:58;;;;;;;67.57;33.53;;;;;;;;;;5084582;28;20028;-78
2021/04/21 09:55:29;;;;;;;72.75;36.25;;;;;;;;;;5084814;28;20064;-78
2021/04/21 09:57:56;;;;;;;62.92;31.90;;;;;;;;;;5085025;28;20027;-79
2021/04/21 10:00:25;;;;;;;63.75;33.15;;;;;;;;;;5083233;28;20560;-82
2021/04/21 10:02:51;;;;;;;54.70;32.50;;;;;;;;;;5076083;28;20139;-78
2021/04/21 10:05:28;;;;;;;59.72;30.42;;;;;;;;;;5085349;28;20012;-76
2021/04/21 10:08:10;;;;;;;70.15;36.30;;;;;;;;;;5084173;28;20043;-80
2021/04/21 10:10:36;;;;;;;;;;;;;;;;;;5081399;28;20073;-78
2021/04/21 10:13:19;;;;;;;71.53;35.65;;;;;;;;;;5080587;28;19950;-76
2021/04/21 10:15:47;;;;;;;69.05;40.22;;;;;;;;;;5080686;28;20032;-83
2021/04/21 10:18:13;;;;;;;86.18;44.63;;;;;;;;;;5086294;28;20521;-79
2021/04/21 10:20:40;;;;;;;77.13;38.42;;;;;;;;;;5082463;28;20531;-79
2021/04/21 10:23:07;;;;;;;84.05;39.28;;;;;;;;;;5082852;28;20106;-79
2021/04/21 10:25:34;;;;;;;78.00;40.92;;;;;;;;;;5081414;28;20435;-78
2021/04/21 10:28:00;;;;;;;83.45;43.58;;;;;;;;;;5087196;28;20277;-75
2021/04/21 10:30:26;;;;;;;76.03;41.33;;;;;;;;;;5072629;28;20043;-78
2021/04/21 10:32:52;;;;;;;84.00;37.55;;;;;;;;;;5086878;28;20049;-81
2021/04/21 10:35:19;;;;;;;85.25;42.45;;;;;;;;;;5090264;28;20016;-78
2021/04/21 10:37:45;;;;;;;83.30;43.08;;;;;;;;;;5086449;28;20028;-79
2021/04/21 10:40:12;;;;;;;69.88;38.17;;;;;;;;;;5087616;28;20028;-79
2021/04/21 10:42:50;;;;;;;68.32;38.60;;;;;;;;;;5085445;28;20037;-78
2021/04/21 10:45:18;;;;;;;78.15;38.15;;;;;;;;;;5075716;28;20013;-79
2021/04/21 10:47:46;;;;;;;78.20;39.80;;;;;;;;;;5082072;28;20503;-81
2021/04/21 10:50:12;;;;;;;71.68;38.22;;;;;;;;;;5084736;28;20162;-77
2021/04/21 10:52:39;;;;;;;66.95;39.58;;;;;;;;;;5083519;28;20039;-79
2021/04/21 10:55:12;;;;;;;75.22;37.40;;;;;;;;;;5088357;28;20032;-79
2021/04/21 10:57:42;;;;;;;67.55;33.40;;;;;;;;;;5086030;28;20036;-77
2021/04/21 11:00:12;;;;;;;66.47;35.00;;;;;;;;;;5086744;28;20509;-79
2021/04/21 11:02:41;;;;;;;65.28;33.38;;;;;;;;;;5076832;28;20018;-78
2021/04/21 11:05:13;;;;;;;57.30;31.88;;;;;;;;;;5081391;28;20032;-78
2021/04/21 11:07:40;;;;;;;62.28;32.42;;;;;;;;;;5078396;28;20474;-80
2021/04/21 11:10:11;;;;;;;52.72;30.25;;;;;;;;;;5071956;28;20035;-74
2021/04/21 11:12:49;;;;;;;42.40;22.10;;;;;;;;;;5085839;28;20034;-76
2021/04/21 11:15:33;;;;;;;40.78;21.02;;;;;;;;;;5087973;28;20501;-80
2021/04/21 11:18:12;;;;;;;32.15;18.98;;;;;;;;;;5079939;28;20032;-80
2021/04/21 11:20:47;;;;;;;22.33;12.73;;;;;;;;;;5084111;28;20024;-78
2021/04/21 11:23:32;;;;;;;27.45;10.80;;;;;;;;;;5084454;28;20019;-78
2021/04/21 11:26:17;;;;;;;20.08;8.35;;;;;;;;;;5082936;28;20489;-77
2021/04/21 11:29:00;;;;;;;21.13;7.13;;;;;;;;;;5080585;28;20025;-74
2021/04/21 11:31:50;;;;;;;16.25;5.80;;;;;;;;;;5089025;28;20036;-79
2021/04/21 11:34:20;;;;;;;15.93;4.95;;;;;;;;;;5082797;28;20160;-76
2021/04/21 11:37:01;;;;;;;18.20;4.78;;;;;;;;;;5082148;28;20028;-79
2021/04/21 11:39:42;;;;;;;12.07;3.65;;;;;;;;;;5076157;28;20057;-68
2021/04/21 11:42:35;;;;;;;20.00;4.65;;;;;;;;;;5079330;28;20016;-77
2021/04/21 11:45:01;;;;;;;;;;;;;;;;;;5075841;28;20066;-80
2021/04/21 11:47:34;;;;;;;16.02;4.55;;;;;;;;;;5085682;28;19916;-76
2021/04/21 11:50:00;;;;;;;12.30;4.63;;;;;;;;;;5078604;28;20028;-79
2021/04/21 11:52:44;;;;;;;14.57;4.20;;;;;;;;;;5083358;28;20047;-78
2021/04/21 11:55:18;;;;;;;18.60;4.82;;;;;;;;;;5082088;28;20032;-72
2021/04/21 11:57:50;;;;;;;13.68;4.25;;;;;;;;;;5084557;28;20067;-75
2021/04/21 12:00:16;;;;;;;10.02;3.47;;;;;;;;;;5074638;28;20037;-76
2021/04/21 12:02:42;;;;;;;15.95;3.85;;;;;;;;;;5077743;28;20032;-77
2021/04/21 12:05:08;;;;;;;15.65;3.47;;;;;;;;;;5083391;28;20033;-77
2021/04/21 12:07:35;;;;;;;12.07;3.03;;;;;;;;;;5085869;28;20349;-77
2021/04/21 12:10:01;;;;;;;17.15;3.17;;;;;;;;;;5077952;28;20165;-76
2021/04/21 12:12:27;;;;;;;17.60;3.03;;;;;;;;;;5079971;28;20077;-76
2021/04/21 12:15:07;;;;;;;14.32;3.58;;;;;;;;;;5076506;28;20035;-78
2021/04/21 12:17:34;;;;;;;16.90;2.55;;;;;;;;;;5080847;28;20024;-77
2021/04/21 12:20:00;;;;;;;15.77;3.83;;;;;;;;;;5086709;28;20135;-78
2021/04/21 12:22:43;;;;;;;17.00;3.47;;;;;;;;;;5073616;28;20035;-78
2021/04/21 12:25:10;;;;;;;23.83;3.22;;;;;;;;;;5080105;28;20067;-78
2021/04/21 12:27:36;;;;;;;23.95;4.15;;;;;;;;;;5071946;28;20039;-77
2021/04/21 12:30:15;;;;;;;17.35;3.30;;;;;;;;;;5086031;28;20047;-77
2021/04/21 12:32:42;;;;;;;20.67;3.35;;;;;;;;;;5072876;28;20035;-74
2021/04/21 12:35:09;;;;;;;23.77;3.22;;;;;;;;;;5087625;28;20031;-74
2021/04/21 12:37:36;;;;;;;26.30;3.05;;;;;;;;;;5088585;28;20114;-77
2021/04/21 12:40:03;;;;;;;26.58;4.05;;;;;;;;;;5081740;28;20032;-68
2021/04/21 12:42:29;;;;;;;19.58;3.20;;;;;;;;;;5077546;28;20021;-77
2021/04/21 12:44:55;;;;;;;16.15;3.80;;;;;;;;;;5078599;28;20054;-72
2021/04/21 12:47:30;;;;;;;20.23;3.53;;;;;;;;;;5080613;28;20032;-68
2021/04/21 12:50:06;;;;;;;15.23;3.72;;;;;;;;;;5076389;28;20024;-73
2021/04/21 12:52:32;;;;;;;25.98;4.32;;;;;;;;;;5083470;28;20027;-73
2021/04/21 12:54:58;;;;;;;20.38;4.28;;;;;;;;;;5086907;28;20024;-76
2021/04/21 12:57:25;;;;;;;21.52;3.78;;;;;;;;;;5081675;28;20073;-76
2021/04/21 12:59:52;;;;;;;20.45;3.20;;;;;;;;;;5076250;28;20040;-79
2021/04/21 13:02:37;;;;;;;21.17;4.68;;;;;;;;;;5080567;28;20016;-70
2021/04/21 13:05:04;;;;;;;13.82;2.78;;;;;;;;;;5086499;28;20028;-76
2021/04/21 13:07:30;;;;;;;22.00;3.22;;;;;;;;;;5082776;28;20500;-76
2021/04/21 13:10:05;;;;;;;19.98;4.07;;;;;;;;;;5079238;28;20032;-75
2021/04/21 13:12:31;;;;;;;28.73;4.35;;;;;;;;;;5088040;28;20154;-76
2021/04/21 13:15:07;;;;;;;29.25;5.15;;;;;;;;;;5089404;28;20024;-77
2021/04/21 13:17:45;;;;;;;22.92;3.55;;;;;;;;;;5089774;28;20497;-74
2021/04/21 13:20:11;;;;;;;20.10;3.25;;;;;;;;;;5092276;28;20055;-76
2021/04/21 13:22:38;;;;;;;22.88;3.70;;;;;;;;;;5085660;28;20486;-72
2021/04/21 13:25:09;;;;;;;23.23;4.22;;;;;;;;;;5082799;28;20424;-75
2021/04/21 13:27:35;;;;;;;22.38;3.20;;;;;;;;;;5088598;28;20393;-74
2021/04/21 13:30:20;;;;;;;24.58;4.00;;;;;;;;;;5084651;28;20081;-72
2021/04/21 13:32:46;;;;;;;20.63;4.45;;;;;;;;;;5084602;28;20032;-75
2021/04/21 13:35:13;;;;;;;24.23;3.53;;;;;;;;;;5079184;28;20081;-75
2021/04/21 13:37:40;;;;;;;20.10;3.78;;;;;;;;;;5075652;28;20144;-74
2021/04/21 13:40:11;;;;;;;22.75;3.75;;;;;;;;;;5068668;28;20040;-77
2021/04/21 13:42:38;;;;;;;23.42;3.65;;;;;;;;;;5074646;28;20028;-74
2021/04/21 13:45:05;;;;;;;24.88;5.07;;;;;;;;;;5074465;28;20062;-72
2021/04/21 13:47:31;;;;;;;22.38;3.45;;;;;;;;;;5072135;28;20086;-74
2021/04/21 13:49:57;;;;;;;20.58;3.92;;;;;;;;;;5069270;28;20428;-75
2021/04/21 13:52:23;;;;;;;24.27;4.60;;;;;;;;;;5070738;28;22016;-72
2021/04/21 13:54:49;;;;;;;25.88;4.75;;;;;;;;;;5079928;28;20052;-71
2021/04/21 13:57:15;;;;;;;23.20;4.22;;;;;;;;;;5087698;28;20020;-75
2021/04/21 13:59:42;;;;;;;24.73;4.90;;;;;;;;;;5086858;28;20577;-72
2021/04/21 14:02:08;;;;;;;24.00;4.53;;;;;;;;;;5088902;28;20028;-75
2021/04/21 14:04:35;;;;;;;22.45;4.45;;;;;;;;;;5087820;28;20024;-73
2021/04/21 14:07:01;;;;;;;23.17;4.45;;;;;;;;;;5089190;28;20540;-74
2021/04/21 14:09:27;;;;;;;25.02;4.93;;;;;;;;;;5087081;28;20019;-74
2021/04/21 14:11:53;;;;;;;22.58;3.28;;;;;;;;;;5089689;28;20047;-73
2021/04/21 14:14:19;;;;;;;19.45;4.55;;;;;;;;;;5088887;28;20508;-69
2021/04/21 14:16:45;;;;;;;25.13;4.25;;;;;;;;;;5089334;28;20024;-77
2021/04/21 14:19:11;;;;;;;26.80;3.92;;;;;;;;;;5090857;28;20036;-75
2021/04/21 14:21:37;;;;;;;29.55;5.07;;;;;;;;;;5079813;28;20042;-72
2021/04/21 14:24:04;;;;;;;26.88;5.43;;;;;;;;;;5090965;28;20016;-73
2021/04/21 14:26:30;;;;;;;26.77;5.03;;;;;;;;;;5087999;28;20112;-73
2021/04/21 14:28:56;;;;;;;26.42;4.57;;;;;;;;;;5087502;28;20056;-75
2021/04/21 14:31:22;;;;;;;31.67;5.63;;;;;;;;;;5080167;28;20024;-73
2021/04/21 14:33:48;;;;;;;32.10;6.15;;;;;;;;;;5085248;28;20081;-72